Time;durP1;ratioP1;P1;durP2;ratioP2;P2;SDS_P1;SDS_P2;PMS_P1;PMS_P2;Temp;Humidity;BMP_temperature;BMP_pressure;BME280_temperature;BME280_humidity;BME280_pressure;Samples;Min_cycle;Max_cycle;Signal;HPM_P1;HPM_P2
2022/02/19 00:01:07;;;;;;;3.98;1.65;;;;;;;7.94;74.55;98413.02;1654446;85;21467;-78
2022/02/19 00:03:34;;;;;;;3.00;1.02;;;;;;;7.97;74.54;98409.48;1654712;85;21126;-79
2022/02/19 00:06:00;;;;;;;3.12;0.80;;;;;;;7.98;74.41;98414.56;1656493;85;21122;-78
2022/02/19 00:08:26;;;;;;;5.42;1.10;;;;;;;7.99;74.29;98412.83;1659337;85;21040;-78
2022/02/19 00:10:52;;;;;;;3.52;1.20;;;;;;;8.01;73.31;98412.77;1661942;85;21095;-78
2022/02/19 00:13:19;;;;;;;5.90;0.80;;;;;;;8.07;73.09;98416.37;1646885;85;21083;-78
2022/02/19 00:15:47;;;;;;;3.72;0.70;;;;;;;8.11;72.91;98444.50;1655167;85;23871;-78
2022/02/19 00:18:13;;;;;;;2.10;0.90;;;;;;;8.15;71.52;98438.78;1660802;85;20985;-78
2022/02/19 01:48:32;;;;;;;3.45;0.90;;;;;;;7.43;67.88;98572.78;1797687;79;21986;-69
2022/02/19 01:50:58;;;;;;;6.17;0.82;;;;;;;7.42;67.91;98580.55;1744306;81;21037;-70
2022/02/19 01:53:24;;;;;;;8.45;1.37;;;;;;;7.42;67.76;98603.23;1759532;81;20964;-70
2022/02/19 01:55:52;;;;;;;1.53;0.70;;;;;;;7.42;67.07;98583.11;1731973;81;20963;-69
2022/02/19 01:58:19;;;;;;;5.78;0.78;;;;;;;7.39;67.83;98576.80;1789473;80;20927;-69
2022/02/19 02:00:45;;;;;;;2.10;0.90;;;;;;;7.33;67.61;98591.16;1789452;80;20906;-69
2022/02/19 02:03:12;;;;;;;2.98;0.88;;;;;;;7.29;67.61;98564.27;1789414;80;20900;-70
2022/02/19 02:05:38;;;;;;;3.00;0.88;;;;;;;7.25;67.60;98561.45;1789354;80;20895;-70
2022/02/19 02:08:05;;;;;;;2.73;0.80;;;;;;;7.22;67.67;98592.84;1789660;80;20922;-70
2022/02/19 02:10:34;;;;;;;5.50;0.70;;;;;;;7.18;67.31;98576.69;1789328;80;20864;-70
2022/02/19 02:13:04;;;;;;;2.72;0.75;;;;;;;7.16;67.65;98585.34;1787831;80;20903;-70
2022/02/19 02:15:33;;;;;;;3.92;0.98;;;;;;;7.15;67.62;98575.51;1756582;80;447637;-70
2022/02/19 02:18:00;;;;;;;2.35;0.60;;;;;;;7.13;67.52;98590.59;1658143;85;21041;-70
2022/02/19 02:20:28;;;;;;;2.92;0.57;;;;;;;7.11;67.57;98582.93;1642563;87;21495;-70
2022/02/19 02:22:55;;;;;;;2.25;0.70;;;;;;;7.11;66.94;98580.81;1667892;86;20951;-70
2022/02/19 02:25:33;;;;;;;7.08;0.95;;;;;;;7.10;67.43;98583.83;1693679;84;21485;-70
2022/02/19 02:27:59;;;;;;;4.78;0.95;;;;;;;7.09;67.36;98576.16;1670243;85;20959;-70
2022/02/19 02:30:26;;;;;;;3.85;0.70;;;;;;;7.07;67.31;98586.50;1640438;84;21188;-70
2022/02/19 02:32:52;;;;;;;4.17;0.90;;;;;;;7.06;67.18;98588.67;1648064;87;21005;-70
2022/02/19 02:35:19;;;;;;;2.05;0.88;;;;;;;7.06;66.95;98587.84;1616548;87;21146;-70
2022/02/19 02:37:46;;;;;;;3.40;0.70;;;;;;;7.05;66.63;98581.86;1664641;84;20984;-70
2022/02/19 02:40:13;;;;;;;2.37;0.75;;;;;;;7.03;66.87;98590.06;1692930;84;21086;-70
2022/02/19 02:42:38;;;;;;;;;;;;;;;7.00;66.89;98585.02;1695285;84;21101;-70
2022/02/19 02:45:06;;;;;;;6.12;0.95;;;;;;;6.96;66.59;98583.00;1693048;83;20220;-70
2022/02/19 02:47:33;;;;;;;2.80;0.80;;;;;;;6.93;66.89;98592.55;1696917;83;21427;-70
2022/02/19 02:49:59;;;;;;;;;;;;;;;6.86;66.42;98584.65;1656062;86;21054;-70
2022/02/19 02:52:25;;;;;;;5.37;0.70;;;;;;;6.83;66.63;98584.75;1661406;83;20176;-70
2022/02/19 02:54:51;;;;;;;6.03;0.87;;;;;;;6.78;66.39;98602.05;1694180;83;20926;-70
2022/02/19 02:57:16;;;;;;;8.43;0.90;;;;;;;6.74;66.49;98609.05;1692877;84;21377;-70
2022/02/19 02:59:45;;;;;;;6.65;1.30;;;;;;;6.71;65.94;98592.45;1692616;83;21749;-70
2022/02/19 03:02:11;;;;;;;3.60;0.90;;;;;;;6.70;65.46;98587.36;1690938;83;21046;-70
2022/02/19 03:04:38;;;;;;;3.43;0.80;;;;;;;6.71;65.68;98584.74;1695634;83;21094;-70
2022/02/19 03:07:04;;;;;;;6.70;1.27;;;;;;;6.71;66.12;98602.72;1721576;82;21235;-70
2022/02/19 03:09:32;;;;;;;4.03;1.15;;;;;;;6.72;65.86;98586.86;1682498;82;21446;-70
2022/02/19 03:12:05;;;;;;;8.58;1.30;;;;;;;6.71;65.64;98610.87;1688681;83;20986;-70
2022/02/19 03:14:31;;;;;;;3.22;0.95;;;;;;;6.72;65.66;98601.83;1682271;83;21062;-70
2022/02/19 03:17:00;;;;;;;3.58;1.42;;;;;;;6.75;65.45;98618.88;1684628;84;21666;-69
2022/02/19 03:19:26;;;;;;;5.97;0.95;;;;;;;6.76;65.19;98611.08;1687208;83;21038;-69
2022/02/19 03:21:52;;;;;;;6.07;1.40;;;;;;;6.78;64.12;98621.31;1669040;83;20931;-70
2022/02/19 03:24:22;;;;;;;2.83;1.10;;;;;;;6.79;64.49;98620.42;1664556;85;21534;-70
2022/02/19 03:26:51;;;;;;;4.33;1.15;;;;;;;6.79;64.41;98597.30;1702776;83;20980;-69
2022/02/19 03:29:17;;;;;;;3.83;1.20;;;;;;;6.78;64.36;98596.91;1723591;83;20891;-70
2022/02/19 03:31:43;;;;;;;4.83;1.10;;;;;;;6.77;64.20;98599.08;1723906;82;20950;-70
2022/02/19 03:34:09;;;;;;;6.53;0.77;;;;;;;6.73;63.80;98598.37;1723227;82;20903;-69
2022/02/19 03:36:35;;;;;;;8.83;1.37;;;;;;;6.71;64.25;98603.16;1717641;81;20971;-70
2022/02/19 03:39:03;;;;;;;5.93;1.47;;;;;;;6.67;64.32;98600.30;1708197;82;20939;-70
2022/02/19 03:41:29;;;;;;;3.05;1.00;;;;;;;6.63;62.32;98616.25;1677898;83;20958;-70
2022/02/19 03:43:58;;;;;;;4.45;1.07;;;;;;;6.63;64.14;98599.12;1694558;84;20955;-69
2022/02/19 03:46:24;;;;;;;;;;;;;;;6.60;63.75;98595.36;1694067;83;21431;-70
2022/02/19 03:48:50;;;;;;;2.80;2.05;;;;;;;6.60;63.27;98597.09;1721658;82;25041;-70
2022/02/19 03:51:16;;;;;;;4.83;1.27;;;;;;;6.57;63.62;98636.54;1723550;82;20911;-70
2022/02/19 03:53:42;;;;;;;4.47;1.17;;;;;;;6.56;63.92;98623.75;1692202;83;20928;-69
2022/02/19 03:56:08;;;;;;;5.80;1.33;;;;;;;6.54;63.71;98629.37;1691681;83;21679;-69
2022/02/19 03:58:34;;;;;;;3.33;1.00;;;;;;;6.55;63.77;98641.33;1667772;83;21007;-70
2022/02/19 04:01:02;;;;;;;5.60;1.35;;;;;;;6.56;63.94;98655.41;1664875;86;21066;-70
2022/02/19 04:03:29;;;;;;;8.55;1.47;;;;;;;6.58;64.07;98663.06;1686201;83;21534;-70
2022/02/19 04:05:56;;;;;;;10.20;1.65;;;;;;;6.58;63.80;98654.91;1693026;83;21138;-69
2022/02/19 04:08:25;;;;;;;5.60;1.10;;;;;;;6.59;63.66;98659.16;1693219;84;21045;-70
2022/02/19 04:10:51;;;;;;;5.75;1.32;;;;;;;6.60;62.94;98644.15;1693588;84;21026;-70
2022/02/19 04:13:18;;;;;;;6.05;1.52;;;;;;;6.62;63.47;98650.08;1714651;83;21081;-70
2022/02/19 04:15:47;;;;;;;7.05;1.30;;;;;;;6.62;63.56;98641.09;1692687;84;21057;-70
2022/02/19 04:18:13;;;;;;;10.30;1.92;;;;;;;6.62;62.99;98625.69;1692909;84;21076;-70
2022/02/19 04:20:40;;;;;;;5.45;1.10;;;;;;;6.64;63.19;98605.93;1702011;83;21074;-70
2022/02/19 04:23:06;;;;;;;6.20;1.30;;;;;;;6.65;62.59;98640.16;1708485;83;20998;-70
2022/02/19 04:25:33;;;;;;;10.32;1.85;;;;;;;6.67;62.27;98659.37;1693537;83;26535;-70
2022/02/19 04:28:07;;;;;;;8.05;1.82;;;;;;;6.70;62.72;98643.86;1701242;82;21027;-70
2022/02/19 04:30:34;;;;;;;4.35;1.60;;;;;;;6.71;62.39;98637.84;1693082;84;21525;-70
2022/02/19 04:33:01;;;;;;;5.35;1.37;;;;;;;6.69;62.88;98625.05;1693157;84;21002;-70
2022/02/19 04:35:31;;;;;;;5.45;1.32;;;;;;;6.69;63.10;98654.58;1696130;83;21102;-70
2022/02/19 04:37:58;;;;;;;7.33;1.70;;;;;;;6.69;62.67;98639.17;1720578;81;20954;-70
2022/02/19 04:40:24;;;;;;;6.92;1.52;;;;;;;6.69;62.67;98653.30;1722094;83;21052;-70
2022/02/19 04:42:58;;;;;;;3.92;1.50;;;;;;;6.71;62.43;98637.39;1721739;83;21479;-70
2022/02/19 04:45:24;;;;;;;5.33;1.37;;;;;;;6.71;62.32;98632.70;1698824;83;21605;-70
2022/02/19 04:47:50;;;;;;;6.97;1.52;;;;;;;6.70;62.07;98628.00;1696251;83;21458;-70
2022/02/19 04:50:17;;;;;;;4.07;1.30;;;;;;;6.71;62.04;98636.55;1675152;84;21085;-70
2022/02/19 04:52:43;;;;;;;7.15;1.67;;;;;;;6.69;61.79;98626.33;1726910;82;21299;-70
2022/02/19 04:55:11;;;;;;;7.37;2.17;;;;;;;6.69;61.79;98626.33;1731713;82;21113;-70
2022/02/19 04:57:43;;;;;;;5.75;1.27;;;;;;;6.70;61.81;98624.16;1728742;82;21556;-70
2022/02/19 05:00:07;;;;;;;8.48;1.40;;;;;;;6.72;61.62;98665.20;1702120;82;21053;-70
2022/02/19 05:02:33;;;;;;;6.20;1.35;;;;;;;6.73;61.87;98625.34;1719098;82;21038;-70
2022/02/19 05:05:00;;;;;;;4.83;1.42;;;;;;;6.73;61.98;98620.20;1731962;82;21473;-70
2022/02/19 05:07:26;;;;;;;5.67;1.67;;;;;;;6.72;62.12;98633.94;1720749;82;20930;-70
2022/02/19 05:09:52;;;;;;;4.33;1.70;;;;;;;6.70;61.91;98655.42;1675668;82;21817;-70
2022/02/19 05:12:18;;;;;;;4.70;1.67;;;;;;;6.69;61.73;98644.75;1674516;85;20898;-70
2022/02/19 05:14:44;;;;;;;6.17;1.42;;;;;;;6.68;61.96;98632.80;1674251;85;20982;-70
2022/02/19 05:17:11;;;;;;;;;;;;;;;6.67;61.63;98646.53;1710884;82;21585;-70
2022/02/19 05:19:37;;;;;;;10.05;1.35;;;;;;;6.68;61.67;98668.30;1732036;82;21138;-70
2022/02/19 05:22:04;;;;;;;6.42;1.62;;;;;;;6.65;61.92;98661.98;1732167;82;21109;-70
2022/02/19 05:24:30;;;;;;;8.78;1.47;;;;;;;6.64;61.55;98662.88;1696544;82;21033;-70
2022/02/19 05:26:57;;;;;;;5.17;1.40;;;;;;;6.63;61.46;98670.17;1674257;82;20993;-70
2022/02/19 05:29:22;;;;;;;6.67;1.70;;;;;;;6.62;61.88;98667.22;1678631;82;20918;-70
2022/02/19 05:31:48;;;;;;;3.73;1.00;;;;;;;6.61;61.57;98675.36;1694678;82;21689;-70
2022/02/19 05:34:16;;;;;;;5.28;1.42;;;;;;;6.61;61.63;98673.23;1696720;84;20990;-70
2022/02/19 05:36:42;;;;;;;7.93;1.73;;;;;;;6.62;61.34;98686.03;1697233;82;21435;-70
2022/02/19 05:39:08;;;;;;;5.72;1.27;;;;;;;6.63;60.74;98682.58;1689900;82;20977;-70
2022/02/19 05:41:35;;;;;;;8.00;1.40;;;;;;;6.67;60.26;98679.47;1703163;84;21037;-70
2022/02/19 05:44:04;;;;;;;4.50;1.20;;;;;;;6.70;60.68;98675.52;1703066;84;21751;-70
2022/02/19 05:46:29;;;;;;;7.25;1.42;;;;;;;6.72;60.94;98702.44;1704452;82;21468;-70
2022/02/19 05:48:55;;;;;;;7.80;1.32;;;;;;;6.70;60.85;98698.64;1711701;82;21664;-70
2022/02/19 05:51:21;;;;;;;7.47;1.50;;;;;;;6.69;60.41;98668.70;1710490;83;20936;-70
2022/02/19 05:53:47;;;;;;;8.17;1.30;;;;;;;6.69;60.77;98703.38;1708154;83;20995;-70
2022/02/19 05:56:13;;;;;;;3.33;1.13;;;;;;;6.69;60.83;98695.67;1707526;83;21102;-70
2022/02/19 05:58:39;;;;;;;4.42;1.05;;;;;;;6.69;60.99;98693.55;1705255;83;21514;-70
2022/02/19 06:01:05;;;;;;;6.93;1.43;;;;;;;6.69;60.96;98719.23;1687397;83;20916;-70
2022/02/19 06:03:31;;;;;;;5.20;1.37;;;;;;;6.64;60.73;98725.34;1661167;83;21679;-70
2022/02/19 06:06:00;;;;;;;6.00;1.52;;;;;;;6.64;60.73;98725.34;1651794;84;21958;-69
2022/02/19 06:08:26;;;;;;;13.60;1.30;;;;;;;6.63;60.67;98724.11;1668882;85;21633;-70
2022/02/19 06:10:52;;;;;;;9.27;2.30;;;;;;;6.61;60.54;98721.58;1691263;83;20939;-70
2022/02/19 06:13:18;;;;;;;3.67;1.00;;;;;;;6.60;60.58;98720.34;1707719;83;21494;-70
2022/02/19 06:15:44;;;;;;;4.70;1.12;;;;;;;6.58;60.10;98720.83;1699270;83;21028;-70
2022/02/19 06:18:10;;;;;;;3.80;0.90;;;;;;;6.55;60.32;98717.91;1673123;83;21387;-70
2022/02/19 06:20:36;;;;;;;4.70;1.00;;;;;;;6.52;60.42;98726.99;1667590;83;21105;-70
2022/02/19 06:23:02;;;;;;;3.17;0.63;;;;;;;6.51;60.35;98734.74;1679471;85;20892;-70
2022/02/19 06:25:29;;;;;;;4.33;0.85;;;;;;;6.48;60.58;98737.40;1671694;83;21106;-70
2022/02/19 06:27:56;;;;;;;6.72;1.40;;;;;;;6.45;59.88;98736.20;1652007;83;21498;-70
2022/02/19 06:30:22;;;;;;;4.92;0.75;;;;;;;6.42;60.32;98737.13;1652146;86;21533;-70
2022/02/19 06:32:48;;;;;;;4.23;1.33;;;;;;;6.42;60.55;98702.92;1666666;83;21580;-70
2022/02/19 06:35:15;;;;;;;8.13;0.98;;;;;;;6.41;60.58;98769.27;1674872;83;21759;-70
2022/02/19 06:37:45;;;;;;;8.03;1.13;;;;;;;6.40;60.61;98758.60;1679313;83;20975;-70
2022/02/19 06:40:14;;;;;;;5.05;1.25;;;;;;;6.39;60.54;98773.60;1679116;83;21546;-70
2022/02/19 06:42:41;;;;;;;8.00;1.12;;;;;;;6.37;60.49;98790.33;1679630;83;21313;-70
2022/02/19 06:45:09;;;;;;;5.47;1.60;;;;;;;6.38;59.96;98787.33;1679283;85;21110;-70
2022/02/19 06:47:36;;;;;;;4.03;1.15;;;;;;;6.38;60.04;98784.76;1646222;86;21551;-70
2022/02/19 06:50:07;;;;;;;;;;;;;;;6.38;60.56;98781.75;1717714;83;21464;-70
2022/02/19 06:52:34;;;;;;;4.03;1.22;;;;;;;6.37;60.33;98785.20;1652193;85;20133;-70
2022/02/19 06:55:00;;;;;;;2.40;1.60;;;;;;;6.39;60.43;98797.98;1636728;86;21552;-70
2022/02/19 06:57:26;;;;;;;1.95;1.20;;;;;;;6.39;60.41;98803.97;1658997;84;21572;-70
2022/02/19 06:59:53;;;;;;;6.17;1.23;;;;;;;6.41;60.23;98791.93;1626673;86;21059;-70
2022/02/19 07:02:19;;;;;;;4.83;1.55;;;;;;;6.43;60.41;98809.86;1646138;86;21091;-70
2022/02/19 07:04:46;;;;;;;4.85;1.27;;;;;;;6.44;60.57;98814.11;1636503;86;21118;-70
2022/02/19 07:07:14;;;;;;;5.42;1.27;;;;;;;6.43;60.42;98838.09;1589758;88;21069;-70
2022/02/19 07:09:40;;;;;;;3.10;1.00;;;;;;;6.42;60.28;98843.67;1606527;87;20980;-70
2022/02/19 07:12:06;;;;;;;3.42;1.10;;;;;;;6.42;60.08;98841.11;1639511;87;20973;-70
2022/02/19 07:14:33;;;;;;;;;;;;;;;6.43;60.14;98845.80;1643404;85;21504;-70
2022/02/19 07:17:04;;;;;;;4.10;1.50;;;;;;;6.43;59.46;98850.94;1650566;85;20098;-70
2022/02/19 07:19:27;;;;;;;4.83;1.60;;;;;;;6.43;60.16;98857.35;1618221;88;21457;-70
2022/02/19 08:03:10;;;;;;;5.65;0.88;;;;;;;6.66;59.33;98978.27;1743840;80;22112;-70
2022/02/19 08:05:36;;;;;;;3.60;0.80;;;;;;;6.65;59.57;98962.45;1746605;81;20930;-71
2022/02/19 08:08:05;;;;;;;4.15;1.20;;;;;;;6.67;59.62;98979.95;1742382;81;20958;-70
2022/02/19 08:10:32;;;;;;;3.27;0.80;;;;;;;6.69;59.70;99004.31;1781450;80;21004;-70
2022/02/19 08:13:03;;;;;;;4.83;1.17;;;;;;;6.70;59.54;99002.98;1751947;81;21452;-70
2022/02/19 08:15:30;;;;;;;3.00;1.40;;;;;;;6.70;59.41;99001.70;1749993;81;21426;-70
2022/02/19 08:17:57;;;;;;;6.12;1.00;;;;;;;6.72;59.19;98997.81;1748410;81;21347;-70
2022/02/19 08:20:24;;;;;;;2.45;0.80;;;;;;;6.75;59.64;99009.30;1747412;81;20946;-70
2022/02/19 08:22:50;;;;;;;1.20;0.50;;;;;;;6.77;59.64;99019.90;1750584;81;20979;-71
2022/02/19 08:25:16;;;;;;;4.00;0.72;;;;;;;6.79;59.59;99008.30;1748687;81;21024;-70
2022/02/19 08:27:42;;;;;;;3.62;0.78;;;;;;;6.79;59.61;98983.89;1750472;81;21024;-72
2022/02/19 08:30:10;;;;;;;3.47;0.70;;;;;;;6.80;59.44;99035.23;1750663;81;20902;-73
2022/02/19 08:32:36;;;;;;;2.72;1.45;;;;;;;6.83;59.04;99023.59;1742063;80;21052;-71
2022/02/19 08:35:05;;;;;;;8.78;1.05;;;;;;;6.91;59.54;99051.66;1780834;80;21024;-72
2022/02/19 08:37:31;;;;;;;4.37;0.90;;;;;;;7.00;59.79;99069.40;1725608;81;21442;-72
2022/02/19 08:39:58;;;;;;;1.50;0.40;;;;;;;7.09;59.28;99058.88;1735264;82;21062;-72
2022/02/19 08:42:26;;;;;;;4.37;0.80;;;;;;;7.11;59.28;99075.55;1754912;81;21020;-72
2022/02/19 08:44:53;;;;;;;3.62;0.90;;;;;;;7.09;59.36;99109.00;1765522;81;21176;-72
2022/02/19 08:47:19;;;;;;;3.70;0.70;;;;;;;7.09;59.27;99066.59;1748406;81;21547;-72
2022/02/19 08:49:45;;;;;;;1.32;0.50;;;;;;;7.10;59.37;99141.53;1751678;81;21045;-72
2022/02/19 08:52:12;;;;;;;1.17;0.45;;;;;;;7.09;59.09;99082.02;1737670;81;21055;-72
2022/02/19 08:54:38;;;;;;;4.17;0.75;;;;;;;7.10;58.83;99125.27;1722103;83;21049;-72
2022/02/19 08:57:05;;;;;;;4.33;0.78;;;;;;;7.12;59.34;99103.78;1724696;82;21044;-72
2022/02/19 08:59:31;;;;;;;1.62;0.60;;;;;;;7.19;58.87;99131.45;1720417;83;21045;-71
2022/02/19 09:01:58;;;;;;;;;;;;;;;7.25;59.43;99117.16;1732657;81;21112;-72
2022/02/19 09:04:25;;;;;;;3.92;0.70;;;;;;;7.35;59.09;99132.70;1731036;81;20423;-72
2022/02/19 09:06:51;;;;;;;1.25;0.40;;;;;;;7.46;59.06;99126.84;1729197;81;20913;-72
2022/02/19 09:09:17;;;;;;;2.00;0.60;;;;;;;7.54;59.22;99194.78;1721652;83;20917;-72
2022/02/19 09:11:44;;;;;;;0.98;0.47;;;;;;;7.57;59.08;99154.84;1726697;81;20901;-71
2022/02/19 09:14:10;;;;;;;1.12;0.40;;;;;;;7.63;59.32;99164.52;1745268;81;21046;-71
2022/02/19 09:16:37;;;;;;;0.53;0.35;;;;;;;7.71;58.76;99169.45;1746011;81;20973;-71
2022/02/19 09:30:50;;;;;;;6.95;0.60;;;;;;;8.19;58.28;99243.59;1782873;78;22908;-72
2022/02/19 09:33:16;;;;;;;1.20;0.60;;;;;;;8.04;58.24;99221.70;1741827;80;21514;-71
2022/02/19 09:35:42;;;;;;;1.65;0.40;;;;;;;7.91;58.87;99266.23;1746941;80;20940;-71
2022/02/19 09:38:09;;;;;;;1.98;0.62;;;;;;;7.83;58.98;99265.59;1755655;80;20985;-71
2022/02/19 09:40:35;;;;;;;1.75;0.50;;;;;;;7.68;58.86;99284.03;1722054;81;21019;-73
2022/02/19 09:43:01;;;;;;;1.67;0.68;;;;;;;7.59;59.07;99293.26;1762692;80;20993;-75
2022/02/19 09:45:29;;;;;;;0.65;0.50;;;;;;;7.58;59.33;99303.98;1757164;80;21478;-73
2022/02/19 09:47:59;;;;;;;1.85;0.40;;;;;;;7.62;59.36;99326.62;1753055;81;21043;-72
2022/02/19 09:50:26;;;;;;;3.77;0.50;;;;;;;7.63;59.17;99330.89;1751713;80;20932;-73
2022/02/19 09:52:53;;;;;;;3.25;0.80;;;;;;;7.63;59.19;99329.60;1749780;80;21496;-73
2022/02/19 09:55:22;;;;;;;1.50;0.47;;;;;;;7.64;59.30;99340.30;1757480;81;20941;-74
2022/02/19 09:57:48;;;;;;;1.57;0.40;;;;;;;7.63;59.31;99347.61;1749264;80;20897;-73
2022/02/19 10:00:27;;;;;;;2.75;0.50;;;;;;;7.60;59.05;99347.24;1746512;80;20977;-73
2022/02/19 10:02:53;;;;;;;1.60;0.70;;;;;;;7.59;59.26;99349.85;1731912;80;21547;-73
2022/02/19 10:05:21;;;;;;;1.90;0.53;;;;;;;7.60;59.20;99339.97;1740429;80;21092;-73
2022/02/19 10:08:06;;;;;;;2.77;0.70;;;;;;;7.61;59.34;99365.66;1758425;80;21468;-74
2022/02/19 10:10:37;;;;;;;4.53;1.02;;;;;;;7.65;59.42;99383.15;1742994;80;21419;-74
2022/02/19 10:13:05;;;;;;;1.90;0.70;;;;;;;7.64;59.44;99377.59;1736089;80;21419;-72
2022/02/19 10:15:52;;;;;;;1.85;0.42;;;;;;;7.67;59.56;99381.38;1745740;80;21002;-72
2022/02/19 10:18:36;;;;;;;1.70;0.70;;;;;;;7.73;59.20;99390.69;1711684;80;21553;-70
2022/02/19 10:21:19;;;;;;;2.60;0.30;;;;;;;7.70;59.33;99398.03;1748617;80;21527;-73
2022/02/19 10:23:50;;;;;;;2.50;0.53;;;;;;;7.73;59.52;99395.39;1762973;80;21579;-74
2022/02/19 10:26:21;;;;;;;2.27;0.40;;;;;;;7.81;59.42;99414.48;1765718;80;21659;-74
2022/02/19 10:29:06;;;;;;;1.72;0.50;;;;;;;7.79;59.09;99426.12;1764493;80;21025;-73
2022/02/19 10:31:38;;;;;;;5.47;0.80;;;;;;;7.82;58.97;99437.60;1749189;80;21568;-73
2022/02/19 10:34:12;;;;;;;1.25;0.80;;;;;;;7.93;59.21;99436.06;1747923;81;21877;-74
2022/02/19 10:36:50;;;;;;;2.98;0.90;;;;;;;7.97;59.37;99455.70;1754353;81;21512;-73
2022/02/19 10:39:28;;;;;;;1.67;1.10;;;;;;;8.03;59.10;99466.29;1740337;81;21493;-74
2022/02/19 10:42:04;;;;;;;2.40;0.75;;;;;;;8.05;59.08;99489.83;1734323;81;21033;-74
2022/02/19 10:44:34;;;;;;;1.17;0.50;;;;;;;7.97;59.16;99474.56;1743975;81;21502;-73
2022/02/19 10:47:22;;;;;;;2.02;0.40;;;;;;;7.89;59.30;99505.22;1750772;80;22233;-74
2022/02/19 10:50:13;;;;;;;2.95;1.22;;;;;;;7.88;59.22;99503.52;1741375;80;21512;-74
2022/02/19 10:52:42;;;;;;;1.20;0.57;;;;;;;7.91;59.23;99499.16;1745436;81;21036;-74
2022/02/19 10:55:14;;;;;;;3.10;0.70;;;;;;;7.90;59.28;99509.48;1750153;81;21560;-73
2022/02/19 10:57:42;;;;;;;3.00;0.40;;;;;;;7.96;59.49;99508.06;1746895;80;21081;-74
2022/02/19 11:00:19;;;;;;;1.82;0.80;;;;;;;8.03;59.36;99503.61;1752433;81;20934;-74
2022/02/19 11:02:47;;;;;;;1.40;0.78;;;;;;;8.00;59.28;99510.97;1746261;81;21003;-75
2022/02/19 11:05:16;;;;;;;1.95;0.75;;;;;;;7.95;59.42;99525.23;1750243;81;21013;-73
2022/02/19 11:07:45;;;;;;;2.62;0.70;;;;;;;7.87;59.42;99525.00;1750608;81;21465;-73
2022/02/19 11:10:15;;;;;;;1.22;0.47;;;;;;;7.81;59.46;99527.70;1739879;81;21474;-73
2022/02/19 11:12:43;;;;;;;2.83;0.60;;;;;;;7.76;59.56;99533.42;1745662;81;21498;-73
2022/02/19 11:15:11;;;;;;;2.02;0.60;;;;;;;7.70;59.30;99533.12;1734152;81;21557;-73
2022/02/19 11:17:38;;;;;;;1.20;0.60;;;;;;;7.65;59.31;99555.52;1748792;81;21088;-73
2022/02/19 11:20:11;;;;;;;1.47;0.82;;;;;;;7.61;59.57;99534.59;1751256;81;21018;-73
2022/02/19 11:22:38;;;;;;;1.35;0.50;;;;;;;7.62;59.54;99592.89;1746229;81;20962;-73
2022/02/19 11:25:10;;;;;;;3.02;0.60;;;;;;;7.59;59.57;99591.22;1742209;81;20990;-73
2022/02/19 11:27:46;;;;;;;1.95;0.53;;;;;;;7.55;59.57;99565.59;1750283;81;21394;-73
2022/02/19 11:30:18;;;;;;;1.62;0.50;;;;;;;7.55;59.64;99589.59;1748962;81;21005;-73
2022/02/19 11:32:45;;;;;;;3.00;0.42;;;;;;;7.62;59.69;99586.02;1773492;79;20982;-73
2022/02/19 11:35:11;;;;;;;;;;;;;;;7.61;59.67;99603.62;1754177;80;21046;-73
2022/02/19 11:37:43;;;;;;;1.22;0.70;;;;;;;7.53;59.72;99635.52;1759232;80;20578;-73
2022/02/19 11:40:15;;;;;;;2.87;0.62;;;;;;;7.40;59.77;99635.34;1746699;81;21143;-73
2022/02/19 11:42:50;;;;;;;5.10;0.68;;;;;;;7.20;59.90;99637.86;1750341;80;20934;-73
2022/02/19 11:45:22;;;;;;;2.15;0.45;;;;;;;7.08;60.12;99652.22;1740176;81;21477;-73
2022/02/19 11:47:51;;;;;;;3.33;1.42;;;;;;;7.04;60.33;99670.28;1731701;81;20907;-73
2022/02/19 11:50:25;;;;;;;1.20;0.65;;;;;;;6.93;60.29;99675.60;1736346;81;20883;-74
2022/02/19 11:53:15;;;;;;;4.58;1.57;;;;;;;6.86;60.55;99690.27;1740673;81;20871;-73
2022/02/19 11:55:46;;;;;;;5.05;2.25;;;;;;;6.82;60.63;99697.61;1748807;81;21421;-73
2022/02/19 11:58:17;;;;;;;2.37;0.80;;;;;;;6.76;60.82;99698.17;1749380;81;20932;-73
2022/02/19 12:00:54;;;;;;;2.05;0.50;;;;;;;6.74;60.80;99707.19;1757331;81;20894;-73
2022/02/19 12:03:34;;;;;;;2.80;0.70;;;;;;;6.78;60.89;99691.25;1742052;81;20930;-73
2022/02/19 12:06:13;;;;;;;3.22;0.82;;;;;;;6.80;60.94;99704.93;1752122;81;20926;-73
2022/02/19 12:09:11;;;;;;;2.40;0.70;;;;;;;6.87;61.06;99707.38;1746974;81;20926;-73
2022/02/19 12:12:06;;;;;;;5.00;1.90;;;;;;;6.95;61.02;99705.55;1740480;81;20937;-73
2022/02/19 12:14:50;;;;;;;2.35;1.60;;;;;;;6.97;60.96;99696.09;1740224;81;20890;-73
2022/02/19 12:17:22;;;;;;;4.70;2.58;;;;;;;6.94;60.90;99706.41;1761262;81;20895;-73
2022/02/19 12:20:04;;;;;;;16.02;9.13;;;;;;;6.93;60.89;99716.28;1745129;81;20859;-73
2022/02/19 12:22:43;;;;;;;20.40;11.50;;;;;;;6.96;60.94;99734.66;1764673;81;20914;-73
2022/02/19 12:25:12;;;;;;;17.90;7.97;;;;;;;6.98;60.91;99737.62;1749816;81;20954;-74
2022/02/19 12:27:41;;;;;;;22.95;11.83;;;;;;;6.98;60.98;99740.63;1736814;81;20961;-74
2022/02/19 12:30:28;;;;;;;29.37;14.20;;;;;;;6.98;61.07;99768.90;1744966;81;21002;-74
2022/02/19 12:33:00;;;;;;;37.58;18.12;;;;;;;7.10;61.27;99744.73;1743213;81;20930;-73
2022/02/19 12:35:37;;;;;;;19.70;13.50;;;;;;;7.26;61.33;99760.33;1754850;80;21132;-73
2022/02/19 12:38:05;;;;;;;79.80;36.53;;;;;;;7.28;61.21;99779.12;1762278;80;20993;-73
2022/02/19 12:40:32;;;;;;;7.10;5.30;;;;;;;7.19;61.25;99790.42;1758142;81;21248;-73
2022/02/19 12:42:59;;;;;;;;;;;;;;;7.12;61.40;99797.81;1741245;81;21480;-73
2022/02/19 12:45:25;;;;;;;3.12;1.82;;;;;;;7.15;61.62;99787.92;1739840;81;20095;-73
2022/02/19 12:47:51;;;;;;;49.30;22.60;;;;;;;7.16;61.49;99782.76;1711914;82;21109;-73
2022/02/19 12:50:20;;;;;;;23.27;11.90;;;;;;;7.15;61.58;99793.92;1685426;83;21129;-73
2022/02/19 12:52:52;;;;;;;6.62;4.53;;;;;;;7.17;61.62;99799.88;1748424;81;21032;-73
2022/02/19 12:55:20;;;;;;;3.87;2.87;;;;;;;7.18;61.59;99814.88;1738886;81;21100;-73
2022/02/19 12:57:52;;;;;;;2.92;1.85;;;;;;;7.16;61.65;99820.04;1754698;81;21017;-73
2022/02/19 13:00:21;;;;;;;4.22;0.80;;;;;;;7.15;61.72;99832.91;1741867;81;20930;-73
2022/02/19 13:03:00;;;;;;;1.77;0.60;;;;;;;7.15;61.68;99840.19;1763404;81;20961;-73
2022/02/19 13:05:26;;;;;;;3.58;0.90;;;;;;;7.11;61.65;99829.98;1737375;82;20898;-73
2022/02/19 13:07:53;;;;;;;2.30;0.70;;;;;;;7.11;61.74;99846.69;1747217;80;21033;-73
2022/02/19 13:10:23;;;;;;;1.98;0.60;;;;;;;7.12;61.64;99832.52;1745268;80;20855;-73
2022/02/19 13:12:49;;;;;;;2.95;0.60;;;;;;;7.14;61.81;99860.78;1727083;81;21378;-73
2022/02/19 13:15:16;;;;;;;0.78;0.40;;;;;;;7.21;61.84;99872.68;1741713;81;20938;-73
2022/02/19 13:17:43;;;;;;;2.58;0.57;;;;;;;7.23;61.52;99860.66;1700688;83;20946;-73
2022/02/19 13:20:18;;;;;;;6.62;0.70;;;;;;;7.20;61.72;99877.41;1695425;83;20969;-73
2022/02/19 13:22:49;;;;;;;2.45;0.70;;;;;;;7.17;61.69;99875.73;1700906;83;20941;-73
2022/02/19 13:25:16;;;;;;;3.25;0.57;;;;;;;7.12;61.68;99884.38;1700737;83;20967;-72
2022/02/19 13:27:45;;;;;;;2.40;0.62;;;;;;;7.06;61.62;99890.45;1710244;82;21438;-73
2022/02/19 13:30:18;;;;;;;3.33;0.65;;;;;;;7.00;61.57;99894.38;1707296;80;20855;-74
2022/02/19 13:32:53;;;;;;;5.62;1.52;;;;;;;6.95;61.69;99909.86;1763623;79;20910;-72
2022/02/19 13:35:28;;;;;;;3.67;0.90;;;;;;;6.94;61.65;99906.88;1764606;80;20910;-73
2022/02/19 13:37:59;;;;;;;2.55;0.95;;;;;;;6.93;61.66;99900.47;1761801;80;20893;-73
2022/02/19 13:40:29;;;;;;;1.55;0.50;;;;;;;6.90;61.60;99900.51;1745714;80;20870;-73
2022/02/19 13:42:58;;;;;;;2.72;0.60;;;;;;;6.86;61.45;99921.53;1749035;80;21366;-73
2022/02/19 13:45:37;;;;;;;1.15;0.60;;;;;;;6.83;61.62;99945.13;1765777;80;20898;-72
2022/02/19 13:48:05;;;;;;;3.25;0.70;;;;;;;6.79;61.59;99938.33;1757458;80;20937;-71
2022/02/19 13:50:41;;;;;;;2.95;0.65;;;;;;;6.76;61.61;99935.36;1767754;80;20944;-71
2022/02/19 13:53:14;;;;;;;2.52;0.98;;;;;;;6.75;61.61;99925.13;1774195;80;20870;-71
2022/02/19 13:55:45;;;;;;;2.92;1.30;;;;;;;6.73;61.35;99935.42;1752207;80;20895;-71
2022/02/19 13:58:16;;;;;;;2.10;0.90;;;;;;;6.69;61.52;99939.33;1761900;80;20941;-71
2022/02/19 14:00:44;;;;;;;2.72;1.00;;;;;;;6.64;61.48;99949.22;1762217;80;20963;-72
2022/02/19 14:03:11;;;;;;;1.45;0.82;;;;;;;6.63;61.55;99974.49;1768258;80;20967;-71
2022/02/19 14:05:45;;;;;;;3.10;1.60;;;;;;;6.61;61.52;99968.95;1770963;80;20862;-71
2022/02/19 14:08:14;;;;;;;3.20;0.70;;;;;;;6.59;61.51;99970.25;1767920;80;20911;-71
2022/02/19 14:10:57;;;;;;;4.90;0.75;;;;;;;6.58;61.58;99972.84;1773638;80;20966;-71
2022/02/19 14:13:25;;;;;;;3.98;0.70;;;;;;;6.58;61.68;99980.11;1766801;80;20895;-71